Time;durP1;ratioP1;P1;durP2;ratioP2;P2;SDS_P1;SDS_P2;PMS_P1;PMS_P2;Temp;Humidity;BMP_temperature;BMP_pressure;BME280_temperature;BME280_humidity;BME280_pressure;Samples;Min_cycle;Max_cycle;Signal;HPM_P1;HPM_P2
2023/10/27 00:02:07;;;;;;;3.40;2.60;;;;;;;10.69;93.84;94798.73;108206;1278;22544;-77
2023/10/27 00:04:37;;;;;;;4.20;2.80;;;;;;;10.71;94.00;94796.06;108278;1277;22817;-77
2023/10/27 00:07:08;;;;;;;4.00;2.50;;;;;;;10.73;94.12;94796.11;108291;1278;23814;-77
2023/10/27 00:09:39;;;;;;;3.40;2.20;;;;;;;10.73;94.29;94795.55;108283;1278;24946;-77
2023/10/27 00:12:10;;;;;;;4.20;2.40;;;;;;;10.74;94.41;94800.34;108271;1274;22528;-77
2023/10/27 00:14:41;;;;;;;5.20;2.40;;;;;;;10.74;94.36;94800.62;108265;1275;22716;-77
2023/10/27 00:17:12;;;;;;;4.40;2.10;;;;;;;10.72;94.58;94805.87;108260;1278;22595;-77
2023/10/27 00:19:43;;;;;;;2.80;2.20;;;;;;;10.71;94.64;94801.73;108262;1278;22904;-77
2023/10/27 00:22:14;;;;;;;6.20;2.60;;;;;;;10.68;94.77;94797.61;108273;1278;22529;-77
2023/10/27 00:24:44;;;;;;;4.30;2.60;;;;;;;10.66;94.89;94794.23;108279;1278;23870;-77
2023/10/27 00:27:15;;;;;;;3.80;2.20;;;;;;;10.66;95.04;94791.48;108270;1278;22632;-77
2023/10/27 00:29:46;;;;;;;2.50;1.90;;;;;;;10.64;95.04;94785.90;108231;1279;22673;-77
2023/10/27 00:32:18;;;;;;;3.20;2.10;;;;;;;10.66;95.12;94787.34;108220;1278;22514;-77
2023/10/27 00:34:49;;;;;;;3.60;2.20;;;;;;;10.68;95.20;94786.71;108294;1278;23701;-77
2023/10/27 00:37:22;;;;;;;2.90;2.20;;;;;;;10.70;95.23;94785.43;108262;1272;22559;-77
2023/10/27 00:39:56;;;;;;;4.40;2.40;;;;;;;10.70;95.24;94780.54;108329;1278;22652;-77
2023/10/27 00:42:27;;;;;;;3.20;2.20;;;;;;;10.69;95.19;94782.01;108274;1278;22631;-77
2023/10/27 00:44:57;;;;;;;2.10;1.90;;;;;;;10.64;95.18;94785.15;108212;1278;26606;-77
2023/10/27 00:47:30;;;;;;;4.10;2.40;;;;;;;10.63;95.36;94778.45;108287;1278;22521;-77
2023/10/27 00:50:02;;;;;;;2.90;1.60;;;;;;;10.64;95.45;94777.11;108245;1278;24879;-77
2023/10/27 00:52:33;;;;;;;3.20;1.90;;;;;;;10.61;95.47;94769.80;108249;1278;22638;-77
2023/10/27 00:55:07;;;;;;;2.20;1.50;;;;;;;10.56;95.62;94760.92;108267;1278;22527;-77
2023/10/27 00:57:39;;;;;;;2.80;1.80;;;;;;;10.53;95.69;94756.10;108274;1262;22522;-77
2023/10/27 01:00:14;;;;;;;2.70;1.90;;;;;;;10.53;95.77;94755.11;108263;1270;26548;-77
2023/10/27 01:02:45;;;;;;;2.10;1.80;;;;;;;10.53;95.85;94757.54;108211;1278;22519;-77
2023/10/27 01:05:16;;;;;;;3.40;1.90;;;;;;;10.52;95.89;94747.36;108291;1278;22834;-77
2023/10/27 01:07:49;;;;;;;2.60;1.80;;;;;;;10.51;95.81;94751.48;108270;1278;22540;-77
2023/10/27 01:10:23;;;;;;;2.50;1.80;;;;;;;10.47;95.75;94749.38;108251;1278;24216;-77
2023/10/27 01:12:56;;;;;;;2.60;1.80;;;;;;;10.41;95.76;94746.72;108307;1275;22537;-77
2023/10/27 01:15:29;;;;;;;3.00;1.90;;;;;;;10.37;95.75;94748.08;108263;1276;24320;-77
2023/10/27 01:18:01;;;;;;;3.40;2.10;;;;;;;10.23;95.37;94746.20;108308;1278;22528;-77
2023/10/27 01:20:31;;;;;;;2.60;2.20;;;;;;;10.07;95.62;94741.64;108250;1278;28473;-77
2023/10/27 01:23:04;;;;;;;3.60;2.20;;;;;;;9.94;95.75;94742.14;108309;1278;24075;-77
2023/10/27 01:25:35;;;;;;;4.90;2.50;;;;;;;9.84;96.16;94743.46;108294;1278;22525;-77
2023/10/27 01:28:06;;;;;;;5.30;2.60;;;;;;;9.82;96.76;94744.36;108291;1278;25106;-77
2023/10/27 01:30:37;;;;;;;3.40;1.70;;;;;;;9.78;96.79;94743.98;108280;1278;22608;-77
2023/10/27 01:33:08;;;;;;;4.50;2.40;;;;;;;9.70;96.76;94740.81;108275;1278;24929;-77
2023/10/27 01:35:39;;;;;;;7.40;2.30;;;;;;;9.63;96.71;94738.64;108294;1277;24243;-77
2023/10/27 01:38:10;;;;;;;2.10;1.90;;;;;;;9.57;96.65;94737.48;108254;1278;22520;-77
2023/10/27 01:40:40;;;;;;;6.80;2.10;;;;;;;9.51;96.48;94734.60;108312;1278;22501;-77
2023/10/27 01:43:11;;;;;;;3.80;2.60;;;;;;;9.44;96.62;94733.52;108332;1278;22517;-77
2023/10/27 01:45:42;;;;;;;4.00;2.30;;;;;;;9.38;96.70;94728.17;108299;1270;22544;-77
2023/10/27 01:48:13;;;;;;;3.30;2.30;;;;;;;9.33;97.06;94716.71;108284;1278;22802;-77
2023/10/27 01:50:44;;;;;;;2.80;2.00;;;;;;;9.32;97.29;94714.66;108309;1278;25243;-77
2023/10/27 01:53:14;;;;;;;4.60;2.10;;;;;;;9.31;97.07;94715.41;108309;1278;22587;-77
2023/10/27 01:55:45;;;;;;;3.30;2.00;;;;;;;9.21;96.57;94715.55;108317;1273;23395;-77
2023/10/27 01:58:16;;;;;;;4.00;2.40;;;;;;;9.16;96.85;94715.12;108280;1270;25423;-76
2023/10/27 02:00:49;;;;;;;2.90;2.10;;;;;;;9.10;96.71;94712.02;108311;1278;22529;-77
2023/10/27 02:03:24;;;;;;;5.30;1.80;;;;;;;8.87;96.11;94700.83;108282;1277;22793;-77
2023/10/27 02:05:55;;;;;;;3.80;2.40;;;;;;;8.70;96.52;94701.55;108282;1278;22531;-77
2023/10/27 02:08:26;;;;;;;2.80;2.00;;;;;;;8.59;96.85;94695.89;108279;1278;39521;-77
2023/10/27 02:10:57;;;;;;;5.40;2.30;;;;;;;8.54;97.31;94691.58;108311;1278;24204;-77
2023/10/27 02:13:28;;;;;;;6.70;4.30;;;;;;;8.52;97.80;94683.80;108270;1278;22517;-77
2023/10/27 02:15:59;;;;;;;6.40;3.80;;;;;;;8.52;98.06;94683.73;108271;1278;24236;-77
2023/10/27 02:18:29;;;;;;;5.30;4.30;;;;;;;8.55;98.45;94673.73;108259;1276;22957;-76
2023/10/27 02:21:00;;;;;;;5.90;3.80;;;;;;;8.59;98.81;94675.23;108297;1278;22540;-77
2023/10/27 02:23:31;;;;;;;6.10;4.30;;;;;;;8.63;98.86;94674.17;108252;1278;22635;-77
2023/10/27 02:26:02;;;;;;;4.70;2.60;;;;;;;8.62;98.41;94670.41;108303;1278;23033;-77
2023/10/27 02:28:33;;;;;;;6.10;2.30;;;;;;;8.45;97.32;94674.89;108262;1278;23578;-77
2023/10/27 02:31:06;;;;;;;3.40;2.40;;;;;;;8.23;97.15;94674.08;108274;1278;25264;-77
2023/10/27 02:33:37;;;;;;;4.30;3.40;;;;;;;8.19;98.28;94675.64;108299;1278;24938;-77
2023/10/27 02:36:08;;;;;;;2.80;2.50;;;;;;;8.28;99.43;94668.40;108265;1278;22521;-77
2023/10/27 02:38:39;;;;;;;4.10;2.50;;;;;;;8.35;99.72;94667.84;108267;1278;22632;-77
2023/10/27 02:41:12;;;;;;;3.10;2.00;;;;;;;8.35;99.81;94663.30;108301;1278;22679;-77
2023/10/27 02:43:42;;;;;;;4.00;2.00;;;;;;;8.26;99.37;94653.67;108304;1278;22673;-77
2023/10/27 02:46:13;;;;;;;2.60;2.00;;;;;;;8.22;99.39;94648.96;108283;1278;23849;-77
2023/10/27 02:48:44;;;;;;;3.70;2.60;;;;;;;8.21;99.43;94649.71;108304;1278;22778;-77
2023/10/27 02:51:16;;;;;;;4.10;2.50;;;;;;;8.21;99.62;94648.72;108281;1267;22572;-77
2023/10/27 02:53:51;;;;;;;2.50;2.10;;;;;;;8.14;98.99;94652.77;108335;1278;22515;-77
2023/10/27 02:56:25;;;;;;;3.30;1.80;;;;;;;7.93;98.05;94653.14;108310;1274;23411;-77
2023/10/27 02:58:56;;;;;;;3.00;2.10;;;;;;;7.75;98.12;94652.48;108278;1270;23628;-77
2023/10/27 03:01:27;;;;;;;3.40;2.30;;;;;;;7.70;98.64;94650.11;108290;1278;23771;-77
2023/10/27 03:03:59;;;;;;;4.10;2.30;;;;;;;7.71;99.24;94649.05;108247;1278;22533;-77
2023/10/27 03:06:30;;;;;;;3.30;2.00;;;;;;;7.78;99.65;94646.27;108289;1273;27505;-77
2023/10/27 03:09:00;;;;;;;2.50;1.80;;;;;;;7.80;99.59;94642.82;108243;1278;22984;-77
2023/10/27 03:11:31;;;;;;;4.60;2.80;;;;;;;7.83;99.54;94641.14;108344;1278;25007;-77
2023/10/27 03:14:02;;;;;;;3.40;2.30;;;;;;;7.86;99.68;94640.52;108315;1275;22522;-77
2023/10/27 03:16:35;;;;;;;4.80;2.60;;;;;;;7.90;99.82;94636.94;108306;1278;22606;-77
2023/10/27 03:19:05;;;;;;;3.00;2.60;;;;;;;7.94;100.00;94639.52;108297;1278;26443;-77
2023/10/27 03:21:36;;;;;;;6.00;3.10;;;;;;;7.97;100.00;94640.66;108333;1278;22511;-77
2023/10/27 03:24:08;;;;;;;4.40;2.90;;;;;;;8.00;100.00;94640.02;108303;1278;25268;-77
2023/10/27 03:26:40;;;;;;;3.80;2.00;;;;;;;8.04;100.00;94638.56;108302;1275;22500;-77
2023/10/27 03:29:11;;;;;;;3.50;2.00;;;;;;;8.04;99.94;94639.73;108331;1276;22519;-77
2023/10/27 03:31:41;;;;;;;5.10;2.30;;;;;;;7.92;99.75;94638.89;108289;1278;25256;-77
2023/10/27 03:34:12;;;;;;;3.70;2.10;;;;;;;7.88;99.94;94636.87;108302;1278;24231;-78
2023/10/27 03:36:43;;;;;;;2.80;2.10;;;;;;;7.93;100.00;94638.86;108310;1278;24206;-77
2023/10/27 03:39:14;;;;;;;3.90;2.20;;;;;;;7.93;99.99;94638.15;108287;1278;23710;-77
2023/10/27 03:41:44;;;;;;;3.20;2.00;;;;;;;7.95;100.00;94633.84;108287;1278;22536;-77
2023/10/27 03:44:15;;;;;;;2.20;1.90;;;;;;;7.96;100.00;94633.36;108333;1278;22528;-77
2023/10/27 03:46:46;;;;;;;2.90;2.10;;;;;;;8.00;100.00;94628.23;108283;1278;24212;-77
2023/10/27 03:49:17;;;;;;;3.10;2.00;;;;;;;8.02;100.00;94622.10;108270;1276;25494;-77
2023/10/27 03:51:50;;;;;;;3.20;2.50;;;;;;;8.06;100.00;94623.63;108312;1278;22553;-77
2023/10/27 03:54:23;;;;;;;3.10;1.80;;;;;;;8.07;99.87;94627.45;108334;1278;22520;-77
2023/10/27 03:56:55;;;;;;;2.90;1.90;;;;;;;7.92;99.16;94621.13;108266;1270;23710;-77
2023/10/27 03:59:26;;;;;;;3.20;1.90;;;;;;;7.78;99.28;94622.09;108291;1277;22565;-77
2023/10/27 04:01:58;;;;;;;2.40;1.70;;;;;;;7.74;99.92;94618.98;108266;1278;25242;-78
2023/10/27 04:04:29;;;;;;;2.30;1.80;;;;;;;7.70;99.84;94620.30;108361;1278;22535;-77
2023/10/27 04:07:01;;;;;;;2.60;1.90;;;;;;;7.68;100.00;94616.57;108274;1278;24350;-77
2023/10/27 04:09:32;;;;;;;2.10;1.80;;;;;;;7.74;100.00;94617.45;108290;1277;22984;-77
2023/10/27 04:12:02;;;;;;;2.70;1.70;;;;;;;7.80;100.00;94612.86;108336;1278;22534;-78
2023/10/27 04:14:33;;;;;;;2.60;1.90;;;;;;;7.83;100.00;94605.72;108305;1278;22528;-78
2023/10/27 04:17:04;;;;;;;3.20;2.20;;;;;;;7.90;100.00;94603.76;108295;1277;25242;-77
2023/10/27 04:19:36;;;;;;;3.00;2.20;;;;;;;7.95;100.00;94602.41;108310;1278;22683;-77
2023/10/27 04:22:07;;;;;;;2.90;2.10;;;;;;;8.00;100.00;94602.73;108311;1270;22560;-77
2023/10/27 04:24:38;;;;;;;3.50;2.10;;;;;;;8.06;100.00;94597.14;108290;1278;22539;-77
2023/10/27 04:27:10;;;;;;;4.50;2.50;;;;;;;8.09;100.00;94586.18;108313;1278;25252;-77
2023/10/27 04:29:40;;;;;;;4.10;2.60;;;;;;;8.11;100.00;94583.41;108304;1278;23912;-77
2023/10/27 04:32:13;;;;;;;4.20;2.20;;;;;;;8.15;100.00;94581.08;108353;1275;25302;-77
2023/10/27 04:34:45;;;;;;;5.10;2.90;;;;;;;8.18;100.00;94582.40;108289;1278;22571;-77
2023/10/27 04:37:16;;;;;;;4.50;2.50;;;;;;;8.20;100.00;94582.86;108312;1275;22527;-77
2023/10/27 04:39:47;;;;;;;4.60;2.60;;;;;;;8.16;100.00;94579.81;108276;1254;22531;-77
2023/10/27 04:42:18;;;;;;;2.90;2.10;;;;;;;8.11;100.00;94576.02;108316;1278;23856;-77
2023/10/27 04:44:51;;;;;;;2.80;1.70;;;;;;;8.06;100.00;94576.81;108314;1278;23059;-78
2023/10/27 04:47:23;;;;;;;2.30;1.70;;;;;;;8.04;100.00;94569.73;108284;1254;23323;-78
2023/10/27 04:49:54;;;;;;;2.10;1.90;;;;;;;8.05;100.00;94561.55;108362;1278;22576;-78
2023/10/27 04:52:25;;;;;;;3.30;2.00;;;;;;;8.09;100.00;94561.91;108336;1278;22604;-77
2023/10/27 04:54:57;;;;;;;4.50;2.20;;;;;;;8.13;100.00;94565.18;108341;1278;22528;-77
2023/10/27 04:57:27;;;;;;;3.10;1.90;;;;;;;8.17;100.00;94564.55;108296;1278;22554;-77
2023/10/27 04:59:58;;;;;;;2.50;1.80;;;;;;;8.16;100.00;94562.52;108292;1278;28040;-77
2023/10/27 05:02:29;;;;;;;4.40;2.50;;;;;;;8.13;100.00;94570.09;108326;1278;22522;-78
2023/10/27 05:05:00;;;;;;;2.70;2.20;;;;;;;8.16;100.00;94561.62;108325;1278;22520;-78
2023/10/27 05:07:31;;;;;;;3.80;2.40;;;;;;;8.20;100.00;94554.10;108300;1278;22564;-77
2023/10/27 05:10:07;;;;;;;3.70;2.60;;;;;;;8.23;100.00;94556.64;108317;1261;22545;-78
2023/10/27 05:12:39;;;;;;;3.70;2.50;;;;;;;8.26;100.00;94549.02;108421;1273;22597;-77
2023/10/27 05:15:11;;;;;;;2.90;2.50;;;;;;;8.29;100.00;94549.30;108307;1278;25406;-78
2023/10/27 05:17:42;;;;;;;5.00;2.30;;;;;;;8.25;100.00;94549.61;108343;1277;23887;-77
2023/10/27 05:20:14;;;;;;;4.10;2.50;;;;;;;8.24;100.00;94551.64;108294;1275;22510;-77
2023/10/27 05:22:45;;;;;;;3.70;2.30;;;;;;;8.27;100.00;94549.27;108353;1278;22509;-77
2023/10/27 05:25:17;;;;;;;2.50;2.30;;;;;;;8.30;100.00;94547.70;108339;1270;22551;-77
2023/10/27 05:27:48;;;;;;;3.70;2.40;;;;;;;8.30;100.00;94547.66;108321;1278;22525;-77
2023/10/27 05:30:22;;;;;;;4.50;2.30;;;;;;;8.25;100.00;94542.46;108315;1278;24214;-77
2023/10/27 05:32:53;;;;;;;4.70;2.50;;;;;;;8.25;100.00;94541.04;108376;1272;25162;-77
2023/10/27 05:35:24;;;;;;;3.20;2.60;;;;;;;8.21;100.00;94545.84;108354;1278;22996;-77
2023/10/27 05:37:55;;;;;;;3.80;2.70;;;;;;;8.18;100.00;94548.80;108311;1278;22528;-77
2023/10/27 05:40:31;;;;;;;3.40;3.00;;;;;;;8.19;100.00;94544.58;108328;1278;22525;-77
2023/10/27 05:43:02;;;;;;;3.60;2.80;;;;;;;8.23;100.00;94545.46;108312;1278;23840;-77
2023/10/27 05:45:33;;;;;;;2.90;2.30;;;;;;;8.23;100.00;94546.86;108331;1278;25244;-78
2023/10/27 05:48:07;;;;;;;3.20;2.60;;;;;;;8.25;100.00;94541.13;108315;1278;22508;-78
2023/10/27 05:50:38;;;;;;;4.60;2.70;;;;;;;8.31;100.00;94533.89;108431;1274;22540;-78
2023/10/27 05:53:11;;;;;;;4.60;2.90;;;;;;;8.36;100.00;94530.65;108332;1276;25393;-77
2023/10/27 05:55:43;;;;;;;4.80;3.30;;;;;;;8.40;100.00;94531.27;108298;1270;22531;-78
2023/10/27 05:58:14;;;;;;;4.40;2.90;;;;;;;8.44;100.00;94526.24;108291;1278;22517;-78
2023/10/27 06:00:46;;;;;;;6.60;2.90;;;;;;;8.48;100.00;94527.17;108318;1278;25234;-78
2023/10/27 06:03:17;;;;;;;5.30;3.60;;;;;;;8.49;100.00;94523.66;108281;1278;22790;-78
2023/10/27 06:05:52;;;;;;;5.00;3.30;;;;;;;8.53;100.00;94527.48;108331;1270;25329;-77
2023/10/27 06:08:23;;;;;;;5.00;2.90;;;;;;;8.57;100.00;94526.85;108342;1278;25291;-77
2023/10/27 06:10:54;;;;;;;3.50;2.70;;;;;;;8.63;100.00;94523.92;108292;1269;25438;-77
2023/10/27 06:13:25;;;;;;;3.30;2.60;;;;;;;8.66;100.00;94525.77;108294;1276;22524;-78
2023/10/27 06:15:55;;;;;;;3.40;2.40;;;;;;;8.72;100.00;94528.34;108273;1274;22516;-78
2023/10/27 06:18:26;;;;;;;3.60;2.40;;;;;;;8.74;100.00;94530.11;108289;1278;24302;-77
2023/10/27 06:20:57;;;;;;;2.70;2.30;;;;;;;8.73;100.00;94532.15;108309;1270;22761;-78
2023/10/27 06:23:28;;;;;;;3.00;2.30;;;;;;;8.75;100.00;94529.08;108303;1278;22558;-77
2023/10/27 06:26:00;;;;;;;2.80;2.60;;;;;;;8.79;100.00;94529.23;108324;1275;23968;-78
2023/10/27 06:28:31;;;;;;;3.40;2.50;;;;;;;8.82;100.00;94520.98;108302;1278;25313;-77
2023/10/27 06:31:04;;;;;;;3.40;2.30;;;;;;;8.87;100.00;94523.27;108322;1271;23953;-78
2023/10/27 06:33:37;;;;;;;3.00;2.50;;;;;;;8.89;100.00;94520.90;108289;1277;22532;-78
2023/10/27 06:36:11;;;;;;;5.30;4.00;;;;;;;8.85;100.00;94516.34;108329;1274;22550;-78
2023/10/27 06:38:42;;;;;;;5.70;3.50;;;;;;;8.77;100.00;94512.85;108307;1278;22540;-77
2023/10/27 06:41:13;;;;;;;4.20;3.60;;;;;;;8.72;100.00;94511.05;108317;1278;22580;-78
2023/10/27 06:43:44;;;;;;;4.60;3.80;;;;;;;8.70;100.00;94511.89;108354;1277;22530;-78
2023/10/27 06:46:15;;;;;;;5.00;3.80;;;;;;;8.72;100.00;94516.17;108312;1278;22530;-78
2023/10/27 06:48:51;;;;;;;5.20;4.00;;;;;;;8.75;100.00;94517.17;108290;1278;23042;-78
2023/10/27 06:51:25;;;;;;;5.10;4.00;;;;;;;8.81;100.00;94513.68;108340;1278;24202;-78
2023/10/27 06:53:56;;;;;;;6.90;4.30;;;;;;;8.84;100.00;94510.86;108318;1278;23096;-78
2023/10/27 06:56:28;;;;;;;4.50;3.60;;;;;;;8.89;100.00;94515.98;108295;1278;22524;-78
2023/10/27 06:59:00;;;;;;;4.60;3.40;;;;;;;8.95;100.00;94520.24;108327;1270;22517;-78
2023/10/27 07:01:32;;;;;;;9.90;5.60;;;;;;;8.98;100.00;94519.48;108328;1278;22626;-78
2023/10/27 07:04:03;;;;;;;20.70;12.70;;;;;;;9.01;100.00;94523.58;108356;1278;23762;-77
2023/10/27 07:06:34;;;;;;;21.10;12.00;;;;;;;9.00;100.00;94523.08;108341;1278;22688;-77
2023/10/27 07:09:05;;;;;;;18.60;11.00;;;;;;;9.02;100.00;94519.34;108279;1278;24327;-78
2023/10/27 07:11:38;;;;;;;15.60;9.60;;;;;;;9.07;100.00;94515.08;108327;1270;22527;-78
2023/10/27 07:14:14;;;;;;;11.50;7.50;;;;;;;9.10;100.00;94512.70;108275;1278;25297;-78
2023/10/27 07:16:45;;;;;;;11.20;7.70;;;;;;;9.15;100.00;94514.98;108285;1278;22528;-78
2023/10/27 07:19:16;;;;;;;8.70;6.70;;;;;;;9.19;100.00;94517.66;108285;1278;23768;-78
2023/10/27 07:21:47;;;;;;;7.40;5.50;;;;;;;9.23;100.00;94519.47;108306;1254;22544;-78
2023/10/27 07:24:20;;;;;;;6.90;4.70;;;;;;;9.27;100.00;94520.80;108309;1278;22520;-78
2023/10/27 07:26:54;;;;;;;7.10;4.30;;;;;;;9.25;100.00;94519.98;108313;1277;22530;-78
2023/10/27 07:29:25;;;;;;;5.70;4.60;;;;;;;9.27;100.00;94523.98;108312;1277;22566;-78
2023/10/27 07:31:56;;;;;;;6.20;4.70;;;;;;;9.32;100.00;94518.50;108336;1277;22934;-78
2023/10/27 07:34:27;;;;;;;6.30;4.20;;;;;;;9.37;100.00;94516.80;108289;1277;22557;-78
2023/10/27 07:36:58;;;;;;;5.90;4.50;;;;;;;9.41;100.00;94518.01;108293;1278;22573;-78
2023/10/27 07:39:30;;;;;;;6.50;3.90;;;;;;;9.43;100.00;94517.80;108283;1277;25420;-78
2023/10/27 07:42:03;;;;;;;7.20;3.40;;;;;;;9.43;100.00;94515.99;108307;1277;23792;-78
2023/10/27 07:44:34;;;;;;;4.90;3.20;;;;;;;9.45;100.00;94510.58;108362;1277;22534;-78
2023/10/27 07:47:05;;;;;;;6.90;3.40;;;;;;;9.47;100.00;94507.98;108289;1277;22658;-78
2023/10/27 07:49:38;;;;;;;3.70;2.70;;;;;;;9.50;100.00;94503.31;108322;1278;22648;-78
2023/10/27 07:52:14;;;;;;;4.30;3.40;;;;;;;9.54;100.00;94502.90;108365;1277;22591;-78
2023/10/27 07:54:45;;;;;;;10.70;6.10;;;;;;;9.57;100.00;94495.60;108362;1278;22579;-78
2023/10/27 07:57:16;;;;;;;21.20;11.80;;;;;;;9.58;100.00;94491.35;108342;1270;24221;-78
2023/10/27 07:59:48;;;;;;;34.50;18.50;;;;;;;9.60;100.00;94487.35;108391;1272;25312;-78
2023/10/27 08:02:21;;;;;;;10.80;5.80;;;;;;;9.63;100.00;94481.27;108310;1278;22533;-78
2023/10/27 08:04:53;;;;;;;4.40;3.60;;;;;;;9.60;100.00;94478.82;108319;1265;22517;-78
2023/10/27 08:07:24;;;;;;;6.90;4.10;;;;;;;9.59;100.00;94478.64;108344;1277;24206;-78
2023/10/27 08:09:56;;;;;;;5.70;4.20;;;;;;;9.60;100.00;94481.23;108262;1275;24563;-78
2023/10/27 08:12:27;;;;;;;6.90;4.20;;;;;;;9.63;100.00;94476.50;108408;1277;25081;-78
2023/10/27 08:14:58;;;;;;;6.30;4.40;;;;;;;9.70;100.00;94471.81;108307;1277;22563;-78
2023/10/27 08:17:29;;;;;;;9.10;5.30;;;;;;;9.77;100.00;94469.73;108318;1278;22793;-78
2023/10/27 08:20:03;;;;;;;8.10;5.40;;;;;;;9.83;100.00;94466.40;108277;1278;26252;-78
2023/10/27 08:22:34;;;;;;;9.90;5.70;;;;;;;9.89;100.00;94464.48;108296;1278;23004;-78
2023/10/27 08:25:08;;;;;;;8.60;5.80;;;;;;;9.95;100.00;94466.58;108326;1278;22525;-78
2023/10/27 08:27:39;;;;;;;9.30;5.10;;;;;;;9.98;100.00;94460.88;108196;1264;161742;-78
2023/10/27 08:30:14;;;;;;;7.80;5.00;;;;;;;10.02;100.00;94455.78;108274;1278;28954;-78
2023/10/27 08:32:45;;;;;;;9.50;5.70;;;;;;;10.04;100.00;94452.45;108225;1268;22517;-78
2023/10/27 08:35:19;;;;;;;7.90;5.50;;;;;;;10.08;100.00;94453.65;108340;1277;24292;-78
2023/10/27 08:37:52;;;;;;;8.40;5.10;;;;;;;10.13;100.00;94452.45;108360;1270;22543;-78
2023/10/27 08:40:24;;;;;;;8.30;5.20;;;;;;;10.20;100.00;94449.55;108382;1278;26571;-78
2023/10/27 08:42:55;;;;;;;8.20;4.00;;;;;;;10.23;100.00;94441.81;108399;1278;22588;-78
2023/10/27 08:45:27;;;;;;;7.60;3.90;;;;;;;10.24;100.00;94433.76;108402;1271;22543;-78
2023/10/27 08:48:00;;;;;;;7.60;3.90;;;;;;;10.28;100.00;94432.00;108326;1278;22527;-78
2023/10/27 08:50:32;;;;;;;9.20;5.00;;;;;;;10.30;100.00;94432.39;108564;1277;27233;-78
2023/10/27 08:53:05;;;;;;;10.80;4.80;;;;;;;10.31;100.00;94429.77;108317;1277;24229;-78
2023/10/27 08:55:36;;;;;;;7.40;4.80;;;;;;;10.31;100.00;94424.24;108344;1277;22528;-78
2023/10/27 08:58:06;;;;;;;8.20;5.30;;;;;;;10.36;100.00;94421.81;108359;1277;25453;-78
2023/10/27 09:00:37;;;;;;;8.80;4.70;;;;;;;10.38;100.00;94420.98;108312;1278;22521;-78
2023/10/27 09:03:25;;;;;;;9.80;5.70;;;;;;;10.39;100.00;94413.13;108319;1277;23856;-79
2023/10/27 09:05:57;;;;;;;5.60;3.80;;;;;;;10.41;100.00;94411.75;108351;1277;22513;-78
2023/10/27 09:08:29;;;;;;;6.10;4.30;;;;;;;10.39;100.00;94412.59;108342;1272;22538;-78
2023/10/27 09:11:01;;;;;;;8.40;4.90;;;;;;;10.34;100.00;94407.63;108404;1255;22564;-78
2023/10/27 09:13:40;;;;;;;8.50;4.60;;;;;;;10.37;100.00;94402.26;108442;1277;22667;-78
2023/10/27 09:16:24;;;;;;;9.50;5.30;;;;;;;10.45;100.00;94395.98;108386;1274;23653;-78
2023/10/27 09:18:56;;;;;;;9.80;5.80;;;;;;;10.48;100.00;94398.80;108316;1277;22515;-79
2023/10/27 09:21:36;;;;;;;9.20;5.70;;;;;;;10.49;100.00;94398.02;108367;1277;22517;-79
2023/10/27 09:24:08;;;;;;;8.70;5.00;;;;;;;10.52;100.00;94401.05;108358;1277;25419;-79
2023/10/27 09:26:47;;;;;;;5.30;4.50;;;;;;;10.56;100.00;94400.06;108313;1277;22524;-79
2023/10/27 09:29:21;;;;;;;5.30;4.00;;;;;;;10.60;100.00;94398.98;108367;1278;22535;-78
2023/10/27 09:31:53;;;;;;;6.50;4.80;;;;;;;10.63;100.00;94392.31;108344;1271;22518;-78
2023/10/27 09:34:29;;;;;;;6.90;5.10;;;;;;;10.65;100.00;94390.41;108240;1271;22524;-79
2023/10/27 09:37:01;;;;;;;8.00;5.10;;;;;;;10.67;100.00;94384.48;108303;1278;24220;-79
2023/10/27 09:39:32;;;;;;;9.80;5.00;;;;;;;10.68;100.00;94377.55;108282;1278;24742;-79
2023/10/27 09:42:05;;;;;;;9.90;5.50;;;;;;;10.69;100.00;94376.98;108287;1278;22595;-79
2023/10/27 09:44:46;;;;;;;7.00;4.80;;;;;;;10.65;100.00;94372.48;108317;1278;25425;-79
2023/10/27 09:47:34;;;;;;;7.50;4.50;;;;;;;10.65;100.00;94373.81;108316;1278;22539;-79
2023/10/27 09:50:07;;;;;;;10.30;5.30;;;;;;;10.65;100.00;94370.36;108338;1278;23981;-79
2023/10/27 09:52:40;;;;;;;8.30;4.70;;;;;;;10.65;100.00;94371.02;108304;1278;22548;-79
2023/10/27 09:55:14;;;;;;;9.40;4.90;;;;;;;10.64;100.00;94366.69;108339;1274;25288;-78
2023/10/27 09:57:46;;;;;;;7.70;4.50;;;;;;;10.64;100.00;94360.71;108336;1278;22521;-78
2023/10/27 10:00:20;;;;;;;7.40;4.80;;;;;;;10.64;100.00;94352.39;108331;1278;25297;-78
2023/10/27 10:02:53;;;;;;;8.10;5.80;;;;;;;10.65;100.00;94350.06;108467;1278;22560;-78
2023/10/27 10:05:27;;;;;;;8.80;5.80;;;;;;;10.66;100.00;94344.85;108388;1272;22714;-78
2023/10/27 10:08:06;;;;;;;7.80;5.40;;;;;;;10.68;100.00;94338.64;108360;1278;22553;-78
2023/10/27 10:10:38;;;;;;;8.60;5.70;;;;;;;10.71;100.00;94334.04;108348;1274;22538;-78
2023/10/27 10:13:16;;;;;;;7.40;6.40;;;;;;;10.72;100.00;94330.50;108314;1278;22557;-78
2023/10/27 10:15:59;;;;;;;8.10;5.50;;;;;;;10.70;100.00;94326.69;108339;1278;22479;-78
2023/10/27 10:18:55;;;;;;;8.50;6.40;;;;;;;10.69;100.00;94312.55;108337;1275;25467;-78
2023/10/27 10:21:44;;;;;;;8.00;6.10;;;;;;;10.69;100.00;94306.42;108406;1270;25455;-78
2023/10/27 10:24:18;;;;;;;8.30;6.80;;;;;;;10.68;100.00;94297.45;108314;1278;22658;-78
2023/10/27 10:27:10;;;;;;;8.60;6.60;;;;;;;10.66;100.00;94294.66;108324;1278;24232;-78
2023/10/27 10:29:42;;;;;;;8.30;6.10;;;;;;;10.60;100.00;94282.92;108316;1278;22527;-78
2023/10/27 10:32:34;;;;;;;9.10;6.60;;;;;;;10.59;100.00;94278.29;108258;1278;22520;-78
2023/10/27 10:35:27;;;;;;;8.10;6.20;;;;;;;10.60;100.00;94269.38;108315;1278;22528;-78
2023/10/27 10:38:19;;;;;;;11.30;6.70;;;;;;;10.60;100.00;94265.05;108317;1265;22590;-78
2023/10/27 10:41:02;;;;;;;9.00;6.40;;;;;;;10.61;100.00;94259.70;108302;1278;22606;-79
2023/10/27 10:43:34;;;;;;;10.30;7.40;;;;;;;10.63;100.00;94245.74;108396;1270;22623;-79
2023/10/27 10:46:07;;;;;;;9.50;6.50;;;;;;;10.62;100.00;94240.28;108317;1278;22522;-79
2023/10/27 10:48:41;;;;;;;8.00;6.30;;;;;;;10.61;100.00;94231.84;108268;1272;25486;-78
2023/10/27 10:51:15;;;;;;;9.70;6.20;;;;;;;10.60;100.00;94227.81;108404;1277;25411;-78
2023/10/27 10:53:53;;;;;;;9.30;5.80;;;;;;;10.62;100.00;94224.37;108289;1278;22516;-78
2023/10/27 10:56:25;;;;;;;9.20;6.70;;;;;;;10.62;100.00;94217.34;108335;1278;22506;-79
2023/10/27 10:58:57;;;;;;;10.20;7.50;;;;;;;10.63;100.00;94207.98;108288;1278;22581;-79
2023/10/27 11:01:28;;;;;;;9.80;7.70;;;;;;;10.64;100.00;94197.41;108281;1277;22527;-79
2023/10/27 11:04:00;;;;;;;10.80;7.00;;;;;;;10.65;100.00;94193.27;108282;1277;22593;-79
2023/10/27 11:06:31;;;;;;;9.70;6.70;;;;;;;10.65;100.00;94189.27;108316;1278;22516;-79
2023/10/27 11:09:04;;;;;;;10.20;7.10;;;;;;;10.64;100.00;94182.65;108326;1277;23918;-79
2023/10/27 11:11:37;;;;;;;8.10;6.40;;;;;;;10.64;100.00;94178.48;108298;1271;22599;-79
2023/10/27 11:14:08;;;;;;;9.10;6.80;;;;;;;10.63;100.00;94174.36;108353;1278;24255;-79
2023/10/27 11:16:39;;;;;;;10.60;6.70;;;;;;;10.64;100.00;94172.42;108329;1271;23605;-79
2023/10/27 11:19:17;;;;;;;8.90;6.20;;;;;;;10.65;100.00;94169.80;108342;1274;25236;-79
2023/10/27 11:21:54;;;;;;;9.50;6.60;;;;;;;10.64;100.00;94165.64;108290;1278;22525;-79
2023/10/27 11:24:26;;;;;;;11.00;6.70;;;;;;;10.66;100.00;94164.45;108388;1278;23073;-79
2023/10/27 11:26:56;;;;;;;7.70;5.50;;;;;;;10.65;100.00;94158.15;108347;1277;25594;-79
2023/10/27 11:29:29;;;;;;;7.90;5.10;;;;;;;10.64;100.00;94151.84;108304;1278;23902;-79
2023/10/27 11:32:17;;;;;;;7.20;5.30;;;;;;;10.64;100.00;94146.63;108299;1278;23968;-79
2023/10/27 11:34:58;;;;;;;9.60;6.30;;;;;;;10.66;100.00;94140.60;108371;1277;25301;-79
2023/10/27 11:37:30;;;;;;;7.40;5.60;;;;;;;10.67;100.00;94139.49;108311;1277;25436;-79
2023/10/27 11:40:15;;;;;;;6.70;5.30;;;;;;;10.68;100.00;94136.95;108317;1277;32659;-79
2023/10/27 11:42:54;;;;;;;9.40;5.50;;;;;;;10.68;100.00;94129.60;108309;1274;23086;-79
2023/10/27 11:45:25;;;;;;;6.90;4.70;;;;;;;10.68;100.00;94123.64;108306;1277;22579;-79
2023/10/27 11:47:56;;;;;;;7.10;5.20;;;;;;;10.67;100.00;94117.48;108287;1277;23984;-79
2023/10/27 11:50:26;;;;;;;6.90;4.70;;;;;;;10.66;100.00;94115.18;108274;1271;22709;-79